createdAt,value
2023-05-10T00:00:52.373Z,0
2023-05-10T00:05:52.436Z,0
2023-05-10T00:10:52.352Z,0
2023-05-10T00:15:52.379Z,0
2023-05-10T00:20:56.821Z,0
2023-05-10T00:25:52.428Z,0
2023-05-10T00:30:52.448Z,0
2023-05-10T00:35:52.400Z,0
2023-05-10T00:40:52.451Z,0
2023-05-10T00:45:52.488Z,0
2023-05-10T00:50:53.475Z,0
2023-05-10T00:55:52.412Z,0
2023-05-10T01:00:52.329Z,0
2023-05-10T01:05:52.364Z,0
2023-05-10T01:10:52.407Z,0
2023-05-10T01:15:52.426Z,0
2023-05-10T01:20:52.379Z,0
2023-05-10T01:25:52.401Z,0
2023-05-10T01:30:52.391Z,0
2023-05-10T01:35:52.457Z,0
2023-05-10T01:40:52.447Z,0
2023-05-10T01:45:52.371Z,0
2023-05-10T01:50:52.418Z,0
2023-05-10T01:55:52.434Z,0
2023-05-10T02:00:53.587Z,0
2023-05-10T02:05:52.450Z,0
2023-05-10T02:10:52.483Z,0
2023-05-10T02:15:52.407Z,0
2023-05-10T02:20:52.401Z,0
2023-05-10T02:25:52.422Z,0
2023-05-10T02:30:52.406Z,0
2023-05-10T02:35:52.450Z,0
2023-05-10T02:40:52.450Z,0
2023-05-10T02:45:52.516Z,0
2023-05-10T02:50:52.534Z,0
2023-05-10T02:55:52.468Z,0
2023-05-10T03:00:52.414Z,0
2023-05-10T03:05:52.436Z,0
2023-05-10T03:10:52.493Z,0
2023-05-10T03:15:52.524Z,0
2023-05-10T03:20:52.421Z,0
2023-05-10T03:25:52.444Z,0
2023-05-10T03:30:52.469Z,0
2023-05-10T03:35:52.438Z,0
2023-05-10T03:40:52.459Z,0
2023-05-10T03:45:52.447Z,0
2023-05-10T03:50:52.441Z,0
2023-05-10T03:55:52.454Z,0
2023-05-10T04:00:52.999Z,0
2023-05-10T04:05:52.445Z,0
2023-05-10T04:10:52.475Z,0
2023-05-10T04:15:52.481Z,0
2023-05-10T04:20:52.511Z,0
2023-05-10T04:25:52.399Z,0
2023-05-10T04:30:52.535Z,0
2023-05-10T04:35:52.435Z,266
2023-05-10T04:40:52.453Z,265
2023-05-10T04:45:52.442Z,276
2023-05-10T04:50:52.439Z,278
2023-05-10T04:55:52.581Z,277
2023-05-10T05:00:52.479Z,278
2023-05-10T05:05:52.444Z,273
2023-05-10T05:10:52.404Z,288
2023-05-10T05:15:52.494Z,288
2023-05-10T05:20:52.477Z,286
2023-05-10T05:25:52.480Z,288
2023-05-10T05:30:52.468Z,290
2023-05-10T05:35:53.595Z,293
2023-05-10T05:40:52.481Z,295
2023-05-10T05:45:52.501Z,296
2023-05-10T05:50:52.465Z,295
2023-05-10T05:55:52.479Z,298
2023-05-10T06:00:52.495Z,302
2023-05-10T06:05:52.464Z,308
2023-05-10T06:10:52.573Z,311
2023-05-10T06:15:52.482Z,315
2023-05-10T06:20:52.523Z,322
2023-05-10T06:25:52.485Z,319
2023-05-10T06:30:52.465Z,323
2023-05-10T06:35:52.482Z,323
2023-05-10T06:40:52.485Z,302
2023-05-10T06:45:52.469Z,326
2023-05-10T06:50:52.508Z,310
2023-05-10T06:55:52.595Z,309
2023-05-10T07:00:52.462Z,319
2023-05-10T07:05:52.517Z,297
2023-05-10T07:10:52.458Z,288
2023-05-10T07:15:52.517Z,327
2023-05-10T07:20:52.442Z,344
2023-05-10T07:25:52.518Z,329
2023-05-10T07:30:52.518Z,294
2023-05-10T07:35:52.504Z,287
2023-05-10T07:40:52.492Z,282
2023-05-10T07:45:56.238Z,334
2023-05-10T07:50:52.476Z,355
2023-05-10T07:55:52.481Z,292
2023-05-10T08:00:52.478Z,317
2023-05-10T08:05:54.775Z,328
2023-05-10T08:10:54.763Z,340
2023-05-10T08:15:54.813Z,350
2023-05-10T08:20:54.828Z,382
2023-05-10T08:25:54.841Z,302
2023-05-10T08:30:54.855Z,381
2023-05-10T08:35:54.795Z,312
2023-05-10T08:40:54.857Z,300
2023-05-10T08:45:54.790Z,297
2023-05-10T08:50:54.825Z,289
2023-05-10T08:55:55.631Z,283
2023-05-10T09:00:54.806Z,281
2023-05-10T09:05:54.796Z,295
2023-05-10T09:10:54.791Z,313
2023-05-10T09:15:54.839Z,416
2023-05-10T09:20:54.832Z,823
2023-05-10T09:25:54.814Z,657
2023-05-10T09:30:54.876Z,392
2023-05-10T09:35:54.775Z,324
2023-05-10T09:40:54.850Z,376
2023-05-10T09:45:54.841Z,312
2023-05-10T09:50:54.789Z,277
2023-05-10T09:55:54.864Z,287
2023-05-10T10:00:54.824Z,334
2023-05-10T10:05:54.851Z,527
2023-05-10T10:10:54.847Z,299
2023-05-10T10:15:54.840Z,270
2023-05-10T10:20:54.875Z,269
2023-05-10T10:25:54.917Z,278
2023-05-10T10:30:54.801Z,282
2023-05-10T10:35:54.809Z,290
2023-05-10T10:40:54.851Z,300
2023-05-10T10:45:55.031Z,322
2023-05-10T10:50:54.854Z,393
2023-05-10T10:55:54.870Z,458
2023-05-10T11:00:54.849Z,318
2023-05-10T11:05:54.834Z,292
2023-05-10T11:10:54.839Z,316
2023-05-10T11:15:54.819Z,315
2023-05-10T11:20:54.864Z,302
2023-05-10T11:25:54.857Z,305
2023-05-10T11:30:54.873Z,310
2023-05-10T11:35:54.858Z,319
2023-05-10T11:40:54.866Z,324
2023-05-10T11:45:54.870Z,324
2023-05-10T11:50:54.877Z,332
2023-05-10T11:55:54.873Z,343
2023-05-10T12:00:54.868Z,341
2023-05-10T12:05:54.828Z,332
2023-05-10T12:10:54.838Z,320
2023-05-10T12:15:54.877Z,312
2023-05-10T12:20:54.906Z,309
2023-05-10T12:25:54.890Z,303
2023-05-10T12:30:54.859Z,295
2023-05-10T12:35:54.847Z,291
2023-05-10T12:40:54.874Z,292
2023-05-10T12:45:54.879Z,293
2023-05-10T12:50:54.958Z,313
2023-05-10T12:55:54.844Z,314
2023-05-10T13:00:54.839Z,313
2023-05-10T13:05:54.898Z,315
2023-05-10T13:10:54.862Z,315
2023-05-10T13:15:54.868Z,316
2023-05-10T13:20:54.891Z,321
2023-05-10T13:25:54.870Z,329
2023-05-10T13:30:54.948Z,347
2023-05-10T13:35:57.908Z,355
2023-05-10T13:40:54.867Z,340
2023-05-10T13:45:54.888Z,337
2023-05-10T13:50:54.861Z,348
2023-05-10T13:55:55.001Z,341
2023-05-10T14:00:54.919Z,329
2023-05-10T14:05:54.940Z,319
2023-05-10T14:10:54.955Z,328
2023-05-10T14:15:55.177Z,333
2023-05-10T14:20:54.913Z,344
2023-05-10T14:25:54.959Z,347
2023-05-10T14:30:55.919Z,342
2023-05-10T14:35:54.891Z,343
2023-05-10T14:40:54.935Z,339
2023-05-10T14:45:54.954Z,337
2023-05-10T14:50:54.912Z,332
2023-05-10T14:55:54.875Z,332
2023-05-10T15:00:54.866Z,331
2023-05-10T15:05:55.907Z,328
2023-05-10T15:10:55.946Z,333
2023-05-10T15:15:55.955Z,336
2023-05-10T15:20:55.879Z,319
2023-05-10T15:25:55.852Z,274
2023-05-10T15:30:55.933Z,272
2023-05-10T15:35:55.898Z,274
2023-05-10T15:40:55.913Z,277
2023-05-10T15:45:55.931Z,276
2023-05-10T15:50:55.917Z,279
2023-05-10T15:55:55.973Z,280
2023-05-10T16:00:55.983Z,278
2023-05-10T16:05:55.912Z,283
2023-05-10T16:10:55.941Z,278
2023-05-10T16:15:55.924Z,279
2023-05-10T16:20:56.069Z,275
2023-05-10T16:25:55.910Z,275
2023-05-10T16:30:55.898Z,272
2023-05-10T16:35:55.935Z,271
2023-05-10T16:40:55.906Z,273
2023-05-10T16:45:55.937Z,275
2023-05-10T16:50:55.887Z,279
2023-05-10T16:55:55.924Z,277
2023-05-10T17:00:55.892Z,276
2023-05-10T17:05:55.920Z,275
2023-05-10T17:10:55.905Z,273
2023-05-10T17:15:55.966Z,272
2023-05-10T17:20:55.935Z,270
2023-05-10T17:25:55.880Z,270
2023-05-10T17:30:55.989Z,271
2023-05-10T17:35:55.932Z,270
2023-05-10T17:40:55.941Z,268
2023-05-10T17:45:55.992Z,266
2023-05-10T17:50:55.941Z,265
2023-05-10T17:55:55.966Z,0
2023-05-10T18:00:55.938Z,0
2023-05-10T18:05:55.981Z,0
2023-05-10T18:10:55.971Z,0
2023-05-10T18:15:55.934Z,0
2023-05-10T18:20:55.935Z,0
2023-05-10T18:25:55.916Z,0
2023-05-10T18:30:55.960Z,0
2023-05-10T18:35:55.959Z,0
2023-05-10T18:40:55.978Z,0
2023-05-10T18:45:56.027Z,0
2023-05-10T18:50:55.959Z,0
2023-05-10T18:55:55.947Z,0
2023-05-10T19:00:55.932Z,0
2023-05-10T19:05:55.988Z,0
2023-05-10T19:10:55.998Z,0
2023-05-10T19:15:56.002Z,0
2023-05-10T19:20:55.973Z,0
2023-05-10T19:25:56.014Z,0
2023-05-10T19:30:56.033Z,0
2023-05-10T19:35:56.014Z,0
2023-05-10T19:40:55.947Z,0
2023-05-10T19:45:55.992Z,0
2023-05-10T19:50:56.132Z,0
2023-05-10T19:55:55.987Z,0
2023-05-10T20:00:56.043Z,0
2023-05-10T20:05:55.949Z,0
2023-05-10T20:10:55.951Z,0
2023-05-10T20:15:56.036Z,0
2023-05-10T20:20:56.011Z,0
2023-05-10T20:25:56.052Z,0
2023-05-10T20:30:55.997Z,0
2023-05-10T20:35:55.992Z,0
2023-05-10T20:40:55.953Z,0
2023-05-10T20:45:55.992Z,0
2023-05-10T20:50:55.963Z,0
2023-05-10T20:55:55.961Z,0
2023-05-10T21:00:56.047Z,0
2023-05-10T21:05:55.977Z,0
2023-05-10T21:10:55.985Z,0
2023-05-10T21:15:56.041Z,0
2023-05-10T21:20:55.939Z,0
2023-05-10T21:25:55.993Z,0
2023-05-10T21:30:55.992Z,0
2023-05-10T21:35:55.992Z,0
2023-05-10T21:40:55.973Z,0
2023-05-10T21:45:56.078Z,0
2023-05-10T21:50:56.045Z,0
2023-05-10T21:55:56.034Z,0
2023-05-10T22:00:56.017Z,0
2023-05-10T22:05:55.983Z,0
2023-05-10T22:10:56.032Z,0
2023-05-10T22:15:55.998Z,0
2023-05-10T22:20:56.044Z,0
2023-05-10T22:25:56.067Z,0
2023-05-10T22:30:55.987Z,0
2023-05-10T22:35:56.034Z,0
2023-05-10T22:40:56.021Z,0
2023-05-10T22:45:56.021Z,0
2023-05-10T22:50:56.074Z,0
2023-05-10T22:55:56.053Z,0
2023-05-10T23:00:56.011Z,0
2023-05-10T23:05:56.043Z,0
2023-05-10T23:10:56.041Z,0
2023-05-10T23:15:56.054Z,0
2023-05-10T23:20:56.025Z,0
2023-05-10T23:25:56.043Z,0
2023-05-10T23:30:56.086Z,0
2023-05-10T23:35:56.038Z,0
2023-05-10T23:40:56.012Z,0
2023-05-10T23:45:56.041Z,0
2023-05-10T23:50:56.089Z,0
2023-05-10T23:55:55.985Z,0
